sensor_id;sensor_type;location;lat;lon;timestamp;pressure;altitude;pressure_sealevel;temperature;humidity
28911;BME280;16028;42.642;23.310;2022-12-18T00:00:42;94732.53;;;8.01;100.00
28911;BME280;16028;42.642;23.310;2022-12-18T00:03:10;94741.97;;;8.02;100.00
28911;BME280;16028;42.642;23.310;2022-12-18T00:05:46;94746.00;;;8.17;100.00
28911;BME280;16028;42.642;23.310;2022-12-18T00:08:13;94740.06;;;8.04;100.00
28911;BME280;16028;42.642;23.310;2022-12-18T00:10:39;94742.88;;;7.90;100.00
28911;BME280;16028;42.642;23.310;2022-12-18T00:13:06;94749.22;;;7.86;100.00
28911;BME280;16028;42.642;23.310;2022-12-18T00:15:34;94750.53;;;7.91;100.00
28911;BME280;16028;42.642;23.310;2022-12-18T00:18:00;94751.81;;;7.86;100.00
28911;BME280;16028;42.642;23.310;2022-12-18T00:20:27;94759.66;;;7.73;100.00
28911;BME280;16028;42.642;23.310;2022-12-18T00:22:55;94763.84;;;7.63;100.00
28911;BME280;16028;42.642;23.310;2022-12-18T00:25:22;94762.06;;;7.53;100.00
28911;BME280;16028;42.642;23.310;2022-12-18T00:27:49;94761.53;;;7.47;100.00
28911;BME280;16028;42.642;23.310;2022-12-18T00:30:16;94763.66;;;7.42;100.00
28911;BME280;16028;42.642;23.310;2022-12-18T00:32:43;94765.84;;;7.36;100.00
28911;BME280;16028;42.642;23.310;2022-12-18T00:35:09;94770.41;;;7.32;100.00
28911;BME280;16028;42.642;23.310;2022-12-18T00:37:36;94773.00;;;7.32;100.00
28911;BME280;16028;42.642;23.310;2022-12-18T00:40:05;94773.78;;;7.45;100.00
28911;BME280;16028;42.642;23.310;2022-12-18T00:42:32;94780.09;;;7.41;100.00
28911;BME280;16028;42.642;23.310;2022-12-18T00:45:17;94786.19;;;7.40;100.00
28911;BME280;16028;42.642;23.310;2022-12-18T00:47:43;94787.03;;;7.41;100.00
28911;BME280;16028;42.642;23.310;2022-12-18T00:50:10;94784.19;;;7.33;100.00
28911;BME280;16028;42.642;23.310;2022-12-18T00:52:37;94788.97;;;7.26;100.00
28911;BME280;16028;42.642;23.310;2022-12-18T00:55:06;94790.41;;;7.30;100.00
28911;BME280;16028;42.642;23.310;2022-12-18T00:57:33;94792.88;;;7.32;100.00
28911;BME280;16028;42.642;23.310;2022-12-18T01:00:00;94787.28;;;7.25;100.00
28911;BME280;16028;42.642;23.310;2022-12-18T01:02:26;94788.78;;;7.17;100.00
28911;BME280;16028;42.642;23.310;2022-12-18T01:04:53;94794.13;;;7.26;100.00
28911;BME280;16028;42.642;23.310;2022-12-18T01:07:20;94794.06;;;7.15;100.00
28911;BME280;16028;42.642;23.310;2022-12-18T01:09:47;94797.59;;;7.14;100.00
28911;BME280;16028;42.642;23.310;2022-12-18T01:12:15;94800.88;;;7.16;100.00
28911;BME280;16028;42.642;23.310;2022-12-18T01:14:42;94816.13;;;7.08;100.00
28911;BME280;16028;42.642;23.310;2022-12-18T01:17:08;94812.00;;;6.93;100.00
28911;BME280;16028;42.642;23.310;2022-12-18T01:19:35;94815.19;;;6.97;100.00
28911;BME280;16028;42.642;23.310;2022-12-18T01:22:02;94806.94;;;6.91;100.00
28911;BME280;16028;42.642;23.310;2022-12-18T01:24:28;94814.06;;;7.01;100.00
28911;BME280;16028;42.642;23.310;2022-12-18T01:26:55;94822.53;;;7.03;100.00
28911;BME280;16028;42.642;23.310;2022-12-18T01:29:23;94823.09;;;6.95;100.00
28911;BME280;16028;42.642;23.310;2022-12-18T01:31:50;94826.19;;;6.87;100.00
28911;BME280;16028;42.642;23.310;2022-12-18T01:34:17;94831.56;;;6.84;100.00
28911;BME280;16028;42.642;23.310;2022-12-18T01:36:44;94822.91;;;6.73;100.00
28911;BME280;16028;42.642;23.310;2022-12-18T01:39:12;94829.81;;;6.72;100.00
28911;BME280;16028;42.642;23.310;2022-12-18T01:41:41;94828.78;;;6.62;100.00
28911;BME280;16028;42.642;23.310;2022-12-18T01:44:55;94833.53;;;6.56;100.00
28911;BME280;16028;42.642;23.310;2022-12-18T01:47:25;94835.84;;;6.48;100.00
28911;BME280;16028;42.642;23.310;2022-12-18T01:49:53;94842.97;;;6.44;100.00
28911;BME280;16028;42.642;23.310;2022-12-18T01:52:21;94831.03;;;6.42;100.00
28911;BME280;16028;42.642;23.310;2022-12-18T01:54:49;94833.63;;;6.29;100.00
28911;BME280;16028;42.642;23.310;2022-12-18T01:57:17;94838.91;;;6.27;100.00
28911;BME280;16028;42.642;23.310;2022-12-18T01:59:46;94831.66;;;6.32;100.00
28911;BME280;16028;42.642;23.310;2022-12-18T02:02:15;94842.53;;;6.25;100.00
28911;BME280;16028;42.642;23.310;2022-12-18T02:04:43;94844.69;;;6.18;100.00
28911;BME280;16028;42.642;23.310;2022-12-18T02:07:17;94844.78;;;6.17;100.00
28911;BME280;16028;42.642;23.310;2022-12-18T02:09:48;94849.03;;;6.18;100.00
28911;BME280;16028;42.642;23.310;2022-12-18T02:12:20;94853.88;;;6.22;100.00
28911;BME280;16028;42.642;23.310;2022-12-18T02:14:55;94852.44;;;6.31;100.00
28911;BME280;16028;42.642;23.310;2022-12-18T02:17:32;94855.47;;;6.37;100.00
28911;BME280;16028;42.642;23.310;2022-12-18T02:20:10;94850.09;;;6.41;100.00
28911;BME280;16028;42.642;23.310;2022-12-18T02:22:46;94858.34;;;6.46;100.00
28911;BME280;16028;42.642;23.310;2022-12-18T02:25:28;94861.13;;;6.30;100.00
28911;BME280;16028;42.642;23.310;2022-12-18T02:28:02;94865.16;;;6.21;100.00
28911;BME280;16028;42.642;23.310;2022-12-18T02:30:31;94860.06;;;6.20;100.00
28911;BME280;16028;42.642;23.310;2022-12-18T02:33:02;94861.94;;;6.18;100.00
28911;BME280;16028;42.642;23.310;2022-12-18T02:35:31;94861.19;;;6.16;100.00
28911;BME280;16028;42.642;23.310;2022-12-18T02:37:58;94860.16;;;6.06;100.00
28911;BME280;16028;42.642;23.310;2022-12-18T02:40:27;94864.28;;;6.08;100.00
28911;BME280;16028;42.642;23.310;2022-12-18T02:42:54;94865.81;;;5.98;100.00
28911;BME280;16028;42.642;23.310;2022-12-18T02:45:23;94870.44;;;5.93;100.00
28911;BME280;16028;42.642;23.310;2022-12-18T02:47:50;94872.53;;;6.01;100.00
28911;BME280;16028;42.642;23.310;2022-12-18T02:50:22;94871.56;;;5.89;100.00
28911;BME280;16028;42.642;23.310;2022-12-18T02:53:01;94870.25;;;5.82;100.00
28911;BME280;16028;42.642;23.310;2022-12-18T02:55:39;94866.13;;;5.79;100.00
28911;BME280;16028;42.642;23.310;2022-12-18T02:58:15;94868.91;;;5.76;100.00
28911;BME280;16028;42.642;23.310;2022-12-18T03:00:50;94872.41;;;5.75;100.00
28911;BME280;16028;42.642;23.310;2022-12-18T03:03:18;94875.63;;;5.79;100.00
28911;BME280;16028;42.642;23.310;2022-12-18T03:05:51;94874.03;;;5.64;100.00
28911;BME280;16028;42.642;23.310;2022-12-18T03:08:21;94880.28;;;5.60;100.00
28911;BME280;16028;42.642;23.310;2022-12-18T03:10:54;94881.75;;;5.64;100.00
28911;BME280;16028;42.642;23.310;2022-12-18T03:13:26;94887.66;;;5.66;100.00
28911;BME280;16028;42.642;23.310;2022-12-18T03:15:56;94885.72;;;5.55;100.00
28911;BME280;16028;42.642;23.310;2022-12-18T03:18:25;94895.06;;;5.58;100.00
28911;BME280;16028;42.642;23.310;2022-12-18T03:20:55;94900.09;;;5.59;100.00
28911;BME280;16028;42.642;23.310;2022-12-18T03:23:27;94899.38;;;5.57;100.00
28911;BME280;16028;42.642;23.310;2022-12-18T03:25:58;94885.38;;;5.61;100.00
28911;BME280;16028;42.642;23.310;2022-12-18T03:28:27;94882.28;;;5.69;100.00
28911;BME280;16028;42.642;23.310;2022-12-18T03:30:59;94888.19;;;5.71;100.00
28911;BME280;16028;42.642;23.310;2022-12-18T03:33:29;94890.72;;;5.58;100.00
28911;BME280;16028;42.642;23.310;2022-12-18T03:35:58;94906.72;;;5.77;100.00
28911;BME280;16028;42.642;23.310;2022-12-18T03:38:24;94901.00;;;5.72;100.00
28911;BME280;16028;42.642;23.310;2022-12-18T03:40:58;94910.66;;;5.83;100.00
28911;BME280;16028;42.642;23.310;2022-12-18T03:43:34;94930.28;;;5.71;100.00
28911;BME280;16028;42.642;23.310;2022-12-18T03:46:08;94920.41;;;5.78;100.00
28911;BME280;16028;42.642;23.310;2022-12-18T03:48:41;94918.78;;;5.77;100.00
28911;BME280;16028;42.642;23.310;2022-12-18T03:51:13;94934.94;;;5.66;100.00
28911;BME280;16028;42.642;23.310;2022-12-18T03:53:44;94937.69;;;5.63;100.00
28911;BME280;16028;42.642;23.310;2022-12-18T03:56:16;94933.19;;;5.67;100.00
28911;BME280;16028;42.642;23.310;2022-12-18T03:58:44;94946.34;;;5.62;100.00
28911;BME280;16028;42.642;23.310;2022-12-18T04:01:15;94927.66;;;5.59;100.00
28911;BME280;16028;42.642;23.310;2022-12-18T04:03:43;94944.91;;;5.58;100.00
28911;BME280;16028;42.642;23.310;2022-12-18T04:06:13;94946.84;;;5.55;100.00
28911;BME280;16028;42.642;23.310;2022-12-18T04:08:41;94947.13;;;5.50;100.00
28911;BME280;16028;42.642;23.310;2022-12-18T04:11:08;94960.28;;;5.60;100.00
28911;BME280;16028;42.642;23.310;2022-12-18T04:13:38;94957.72;;;5.60;100.00
28911;BME280;16028;42.642;23.310;2022-12-18T04:16:05;94964.63;;;5.59;100.00
28911;BME280;16028;42.642;23.310;2022-12-18T04:18:34;94964.53;;;5.61;100.00
28911;BME280;16028;42.642;23.310;2022-12-18T04:21:01;94967.50;;;5.55;100.00
28911;BME280;16028;42.642;23.310;2022-12-18T04:23:27;94974.97;;;5.45;100.00
28911;BME280;16028;42.642;23.310;2022-12-18T04:25:54;94974.41;;;5.54;100.00
28911;BME280;16028;42.642;23.310;2022-12-18T04:28:21;94973.84;;;5.49;100.00
28911;BME280;16028;42.642;23.310;2022-12-18T04:30:48;94974.13;;;5.45;100.00
28911;BME280;16028;42.642;23.310;2022-12-18T04:33:15;94977.16;;;5.51;100.00
28911;BME280;16028;42.642;23.310;2022-12-18T04:35:43;94985.66;;;5.39;99.30
28911;BME280;16028;42.642;23.310;2022-12-18T04:38:10;94993.09;;;5.44;98.54
28911;BME280;16028;42.642;23.310;2022-12-18T04:40:37;94994.38;;;5.37;99.53
28911;BME280;16028;42.642;23.310;2022-12-18T04:43:04;95015.84;;;5.37;98.49
28911;BME280;16028;42.642;23.310;2022-12-18T04:45:32;95011.19;;;5.29;97.83
28911;BME280;16028;42.642;23.310;2022-12-18T04:47:59;95005.38;;;5.26;97.49
28911;BME280;16028;42.642;23.310;2022-12-18T04:50:26;95005.56;;;5.23;99.21
28911;BME280;16028;42.642;23.310;2022-12-18T04:52:54;95019.25;;;5.23;98.06
28911;BME280;16028;42.642;23.310;2022-12-18T04:55:21;95011.63;;;5.22;99.33
28911;BME280;16028;42.642;23.310;2022-12-18T04:57:48;95018.72;;;5.32;99.49
28911;BME280;16028;42.642;23.310;2022-12-18T05:00:15;95013.56;;;5.32;100.00
28911;BME280;16028;42.642;23.310;2022-12-18T05:02:42;95017.22;;;5.43;96.97
28911;BME280;16028;42.642;23.310;2022-12-18T05:05:09;95023.34;;;5.42;97.53
28911;BME280;16028;42.642;23.310;2022-12-18T05:07:36;95018.91;;;5.44;96.11
28911;BME280;16028;42.642;23.310;2022-12-18T05:10:09;95026.38;;;5.34;96.83
28911;BME280;16028;42.642;23.310;2022-12-18T05:12:36;95033.00;;;5.38;96.81
28911;BME280;16028;42.642;23.310;2022-12-18T05:15:23;95043.03;;;5.28;97.67
28911;BME280;16028;42.642;23.310;2022-12-18T05:17:50;95036.22;;;5.27;98.70
28911;BME280;16028;42.642;23.310;2022-12-18T05:20:17;95034.81;;;5.36;98.36
28911;BME280;16028;42.642;23.310;2022-12-18T05:22:44;95041.41;;;5.42;96.97
28911;BME280;16028;42.642;23.310;2022-12-18T05:25:12;95046.63;;;5.40;96.44
28911;BME280;16028;42.642;23.310;2022-12-18T05:27:39;95050.31;;;5.36;96.98
28911;BME280;16028;42.642;23.310;2022-12-18T05:30:07;95050.31;;;5.36;97.88
28911;BME280;16028;42.642;23.310;2022-12-18T05:32:33;95058.81;;;5.38;98.28
28911;BME280;16028;42.642;23.310;2022-12-18T05:35:00;95070.69;;;5.41;97.56
28911;BME280;16028;42.642;23.310;2022-12-18T05:37:27;95077.50;;;5.42;97.76
28911;BME280;16028;42.642;23.310;2022-12-18T05:39:54;95080.28;;;5.39;98.25
28911;BME280;16028;42.642;23.310;2022-12-18T05:42:22;95081.00;;;5.41;98.30
28911;BME280;16028;42.642;23.310;2022-12-18T05:44:49;95086.72;;;5.46;95.82
28911;BME280;16028;42.642;23.310;2022-12-18T05:47:16;95075.59;;;5.45;95.25
28911;BME280;16028;42.642;23.310;2022-12-18T05:49:42;95073.25;;;5.41;94.26
28911;BME280;16028;42.642;23.310;2022-12-18T05:52:09;95078.06;;;5.32;94.69
28911;BME280;16028;42.642;23.310;2022-12-18T05:54:36;95079.03;;;5.30;95.58
28911;BME280;16028;42.642;23.310;2022-12-18T05:57:03;95085.28;;;5.12;94.70
28911;BME280;16028;42.642;23.310;2022-12-18T05:59:31;95093.06;;;4.96;96.40
28911;BME280;16028;42.642;23.310;2022-12-18T06:01:58;95098.03;;;4.99;96.62
28911;BME280;16028;42.642;23.310;2022-12-18T06:04:26;95094.06;;;4.94;97.01
28911;BME280;16028;42.642;23.310;2022-12-18T06:06:53;95097.84;;;4.88;98.33
28911;BME280;16028;42.642;23.310;2022-12-18T06:09:20;95107.69;;;4.96;97.60
28911;BME280;16028;42.642;23.310;2022-12-18T06:11:47;95101.63;;;4.97;97.55
28911;BME280;16028;42.642;23.310;2022-12-18T06:14:14;95102.72;;;4.93;97.05
28911;BME280;16028;42.642;23.310;2022-12-18T06:16:43;95112.38;;;4.89;97.57
28911;BME280;16028;42.642;23.310;2022-12-18T06:19:14;95105.28;;;4.93;98.24
28911;BME280;16028;42.642;23.310;2022-12-18T06:21:41;95122.34;;;4.95;97.25
28911;BME280;16028;42.642;23.310;2022-12-18T06:24:08;95116.69;;;4.89;97.24
28911;BME280;16028;42.642;23.310;2022-12-18T06:26:37;95118.19;;;4.93;96.75
28911;BME280;16028;42.642;23.310;2022-12-18T06:29:04;95129.16;;;4.96;96.66
28911;BME280;16028;42.642;23.310;2022-12-18T06:31:30;95129.56;;;4.89;95.26
28911;BME280;16028;42.642;23.310;2022-12-18T06:33:59;95134.84;;;4.87;94.84
28911;BME280;16028;42.642;23.310;2022-12-18T06:36:25;95123.75;;;4.85;95.29
28911;BME280;16028;42.642;23.310;2022-12-18T06:38:52;95140.72;;;4.89;94.98
28911;BME280;16028;42.642;23.310;2022-12-18T06:41:20;95130.25;;;4.92;95.52
28911;BME280;16028;42.642;23.310;2022-12-18T06:43:47;95135.16;;;4.97;96.08
28911;BME280;16028;42.642;23.310;2022-12-18T06:46:14;95140.63;;;5.06;93.77
28911;BME280;16028;42.642;23.310;2022-12-18T06:48:41;95144.28;;;5.02;93.12
28911;BME280;16028;42.642;23.310;2022-12-18T06:51:09;95140.03;;;5.01;94.46
28911;BME280;16028;42.642;23.310;2022-12-18T06:53:36;95151.75;;;5.07;93.23
28911;BME280;16028;42.642;23.310;2022-12-18T06:56:04;95153.34;;;5.09;94.19
28911;BME280;16028;42.642;23.310;2022-12-18T06:58:31;95158.84;;;5.03;91.91
28911;BME280;16028;42.642;23.310;2022-12-18T07:00:59;95155.94;;;4.94;90.71
28911;BME280;16028;42.642;23.310;2022-12-18T07:03:27;95154.38;;;4.91;92.79
28911;BME280;16028;42.642;23.310;2022-12-18T07:05:54;95158.84;;;5.03;91.07
28911;BME280;16028;42.642;23.310;2022-12-18T07:08:22;95158.91;;;5.02;90.55
28911;BME280;16028;42.642;23.310;2022-12-18T07:10:49;95164.25;;;4.99;91.68
28911;BME280;16028;42.642;23.310;2022-12-18T07:13:15;95159.53;;;4.91;92.47
28911;BME280;16028;42.642;23.310;2022-12-18T07:15:42;95167.59;;;5.01;91.51
28911;BME280;16028;42.642;23.310;2022-12-18T07:18:09;95164.91;;;5.02;91.60
28911;BME280;16028;42.642;23.310;2022-12-18T07:20:36;95166.91;;;4.97;89.98
28911;BME280;16028;42.642;23.310;2022-12-18T07:23:03;95167.31;;;5.05;89.92
28911;BME280;16028;42.642;23.310;2022-12-18T07:25:33;95178.81;;;5.00;89.31
28911;BME280;16028;42.642;23.310;2022-12-18T07:28:00;95176.13;;;5.01;89.77
28911;BME280;16028;42.642;23.310;2022-12-18T07:30:27;95184.13;;;4.97;89.68
28911;BME280;16028;42.642;23.310;2022-12-18T07:32:53;95187.38;;;5.00;90.86
28911;BME280;16028;42.642;23.310;2022-12-18T07:35:20;95181.69;;;5.09;89.39
28911;BME280;16028;42.642;23.310;2022-12-18T07:37:47;95190.34;;;5.08;88.61
28911;BME280;16028;42.642;23.310;2022-12-18T07:40:14;95189.91;;;5.16;89.99
28911;BME280;16028;42.642;23.310;2022-12-18T07:42:42;95188.00;;;5.19;89.65
28911;BME280;16028;42.642;23.310;2022-12-18T07:45:09;95192.16;;;5.22;90.96
28911;BME280;16028;42.642;23.310;2022-12-18T07:47:36;95194.31;;;5.29;89.61
28911;BME280;16028;42.642;23.310;2022-12-18T07:50:03;95207.44;;;5.25;89.12
28911;BME280;16028;42.642;23.310;2022-12-18T07:52:30;95201.88;;;5.32;88.89
28911;BME280;16028;42.642;23.310;2022-12-18T07:54:57;95206.09;;;5.33;87.24
28911;BME280;16028;42.642;23.310;2022-12-18T07:57:24;95206.13;;;5.18;86.63
28911;BME280;16028;42.642;23.310;2022-12-18T07:59:52;95211.63;;;5.12;86.33
28911;BME280;16028;42.642;23.310;2022-12-18T08:02:18;95211.13;;;5.05;87.66
28911;BME280;16028;42.642;23.310;2022-12-18T08:04:45;95217.53;;;5.14;88.16
28911;BME280;16028;42.642;23.310;2022-12-18T08:07:12;95222.44;;;5.18;88.58
28911;BME280;16028;42.642;23.310;2022-12-18T08:09:39;95225.56;;;5.23;90.27
28911;BME280;16028;42.642;23.310;2022-12-18T08:12:06;95231.84;;;5.19;89.64
28911;BME280;16028;42.642;23.310;2022-12-18T08:14:33;95235.56;;;5.14;90.28
28911;BME280;16028;42.642;23.310;2022-12-18T08:17:01;95235.84;;;5.09;90.29
28911;BME280;16028;42.642;23.310;2022-12-18T08:19:27;95244.50;;;5.08;90.01
28911;BME280;16028;42.642;23.310;2022-12-18T08:21:54;95255.06;;;5.04;89.25
28911;BME280;16028;42.642;23.310;2022-12-18T08:24:22;95247.56;;;4.99;90.38
28911;BME280;16028;42.642;23.310;2022-12-18T08:26:49;95256.72;;;5.05;90.22
28911;BME280;16028;42.642;23.310;2022-12-18T08:29:15;95255.13;;;5.02;91.33
28911;BME280;16028;42.642;23.310;2022-12-18T08:31:42;95256.38;;;5.11;90.30
28911;BME280;16028;42.642;23.310;2022-12-18T08:34:10;95257.47;;;5.07;90.36
28911;BME280;16028;42.642;23.310;2022-12-18T08:36:37;95267.53;;;5.11;91.09
28911;BME280;16028;42.642;23.310;2022-12-18T08:39:04;95260.56;;;5.13;90.82
28911;BME280;16028;42.642;23.310;2022-12-18T08:41:34;95260.56;;;5.13;90.99
28911;BME280;16028;42.642;23.310;2022-12-18T08:44:01;95265.13;;;5.08;91.57
28911;BME280;16028;42.642;23.310;2022-12-18T08:46:50;95266.06;;;5.07;92.37
28911;BME280;16028;42.642;23.310;2022-12-18T08:49:18;95269.94;;;5.14;92.27
28911;BME280;16028;42.642;23.310;2022-12-18T08:51:45;95267.34;;;5.30;91.00
28911;BME280;16028;42.642;23.310;2022-12-18T08:54:12;95275.34;;;5.25;89.73
28911;BME280;16028;42.642;23.310;2022-12-18T08:56:38;95268.03;;;5.18;90.11
28911;BME280;16028;42.642;23.310;2022-12-18T08:59:05;95269.44;;;5.08;91.53
28911;BME280;16028;42.642;23.310;2022-12-18T09:01:32;95268.88;;;5.03;93.05
28911;BME280;16028;42.642;23.310;2022-12-18T09:03:59;95266.78;;;5.25;91.44
28911;BME280;16028;42.642;23.310;2022-12-18T09:06:27;95270.03;;;5.13;91.06
28911;BME280;16028;42.642;23.310;2022-12-18T09:08:54;95264.03;;;5.12;91.82
28911;BME280;16028;42.642;23.310;2022-12-18T09:11:22;95256.16;;;5.00;92.22
28911;BME280;16028;42.642;23.310;2022-12-18T09:13:49;95257.81;;;5.16;91.81
28911;BME280;16028;42.642;23.310;2022-12-18T09:16:16;95261.38;;;5.14;90.82
28911;BME280;16028;42.642;23.310;2022-12-18T09:18:43;95257.13;;;5.13;90.86
28911;BME280;16028;42.642;23.310;2022-12-18T09:21:12;95258.56;;;5.03;91.95
28911;BME280;16028;42.642;23.310;2022-12-18T09:23:41;95260.72;;;5.10;90.05
28911;BME280;16028;42.642;23.310;2022-12-18T09:26:08;95255.13;;;5.02;91.05
28911;BME280;16028;42.642;23.310;2022-12-18T09:28:35;95259.41;;;5.03;91.00
28911;BME280;16028;42.642;23.310;2022-12-18T09:31:05;95250.38;;;4.95;92.81
28911;BME280;16028;42.642;23.310;2022-12-18T09:33:33;95263.22;;;4.96;92.10
28911;BME280;16028;42.642;23.310;2022-12-18T09:36:01;95264.38;;;5.06;92.16
28911;BME280;16028;42.642;23.310;2022-12-18T09:38:28;95269.19;;;5.12;91.24
28911;BME280;16028;42.642;23.310;2022-12-18T09:41:00;95266.19;;;5.04;90.87
28911;BME280;16028;42.642;23.310;2022-12-18T09:43:34;95264.78;;;5.14;90.60
28911;BME280;16028;42.642;23.310;2022-12-18T09:46:06;95262.38;;;5.11;90.89
28911;BME280;16028;42.642;23.310;2022-12-18T09:48:35;95270.19;;;5.10;90.89
28911;BME280;16028;42.642;23.310;2022-12-18T09:51:11;95270.19;;;5.10;90.90
28911;BME280;16028;42.642;23.310;2022-12-18T09:53:41;95261.13;;;5.18;89.99
28911;BME280;16028;42.642;23.310;2022-12-18T09:56:16;95259.44;;;5.17;91.29
28911;BME280;16028;42.642;23.310;2022-12-18T09:58:47;95260.72;;;5.26;91.72
28911;BME280;16028;42.642;23.310;2022-12-18T10:01:20;95252.00;;;5.43;88.19
28911;BME280;16028;42.642;23.310;2022-12-18T10:03:48;95256.84;;;5.49;88.05
28911;BME280;16028;42.642;23.310;2022-12-18T10:06:19;95248.78;;;5.39;87.91
28911;BME280;16028;42.642;23.310;2022-12-18T10:08:51;95250.84;;;5.48;86.82
28911;BME280;16028;42.642;23.310;2022-12-18T10:11:28;95252.56;;;5.63;85.77
28911;BME280;16028;42.642;23.310;2022-12-18T10:14:04;95253.75;;;5.58;84.61
28911;BME280;16028;42.642;23.310;2022-12-18T10:16:38;95256.31;;;5.58;84.77
28911;BME280;16028;42.642;23.310;2022-12-18T10:19:21;95263.81;;;5.47;84.34
28911;BME280;16028;42.642;23.310;2022-12-18T10:21:57;95266.19;;;5.36;83.46
28911;BME280;16028;42.642;23.310;2022-12-18T10:24:33;95268.94;;;5.32;84.55
28911;BME280;16028;42.642;23.310;2022-12-18T10:27:12;95269.19;;;5.28;84.21
28911;BME280;16028;42.642;23.310;2022-12-18T10:29:41;95268.50;;;5.24;84.53
28911;BME280;16028;42.642;23.310;2022-12-18T10:32:14;95273.28;;;5.16;84.76
28911;BME280;16028;42.642;23.310;2022-12-18T10:34:44;95266.53;;;5.14;86.33
28911;BME280;16028;42.642;23.310;2022-12-18T10:37:15;95275.59;;;5.21;87.15
28911;BME280;16028;42.642;23.310;2022-12-18T10:39:42;95261.38;;;5.29;86.36
28911;BME280;16028;42.642;23.310;2022-12-18T10:42:16;95269.50;;;5.38;83.79
28911;BME280;16028;42.642;23.310;2022-12-18T10:44:43;95265.88;;;5.26;85.03
28911;BME280;16028;42.642;23.310;2022-12-18T10:47:12;95265.03;;;5.25;86.37
28911;BME280;16028;42.642;23.310;2022-12-18T10:49:47;95268.50;;;5.40;82.48
28911;BME280;16028;42.642;23.310;2022-12-18T10:52:16;95271.53;;;5.32;83.71
28911;BME280;16028;42.642;23.310;2022-12-18T10:54:48;95271.41;;;5.34;81.33
28911;BME280;16028;42.642;23.310;2022-12-18T10:57:29;95264.84;;;5.28;83.00
28911;BME280;16028;42.642;23.310;2022-12-18T10:59:57;95265.53;;;5.32;78.30
28911;BME280;16028;42.642;23.310;2022-12-18T11:02:33;95264.53;;;5.19;80.77
28911;BME280;16028;42.642;23.310;2022-12-18T11:05:01;95259.88;;;5.25;80.04
28911;BME280;16028;42.642;23.310;2022-12-18T11:07:47;95265.94;;;5.24;79.38
28911;BME280;16028;42.642;23.310;2022-12-18T11:10:16;95267.13;;;5.19;80.16
28911;BME280;16028;42.642;23.310;2022-12-18T11:12:45;95262.78;;;5.19;79.06
28911;BME280;16028;42.642;23.310;2022-12-18T11:15:16;95266.69;;;5.26;79.12
28911;BME280;16028;42.642;23.310;2022-12-18T11:17:47;95262.28;;;5.28;77.82
28911;BME280;16028;42.642;23.310;2022-12-18T11:20:21;95270.19;;;5.25;78.57
28911;BME280;16028;42.642;23.310;2022-12-18T11:22:55;95277.84;;;5.11;81.08
28911;BME280;16028;42.642;23.310;2022-12-18T11:25:23;95266.44;;;5.15;81.38
28911;BME280;16028;42.642;23.310;2022-12-18T11:27:54;95271.69;;;5.29;77.50
28911;BME280;16028;42.642;23.310;2022-12-18T11:30:23;95267.28;;;5.31;76.79
28911;BME280;16028;42.642;23.310;2022-12-18T11:32:53;95268.34;;;5.27;77.14
28911;BME280;16028;42.642;23.310;2022-12-18T11:35:26;95268.50;;;5.24;78.17
28911;BME280;16028;42.642;23.310;2022-12-18T11:37:57;95273.78;;;5.23;79.66
28911;BME280;16028;42.642;23.310;2022-12-18T11:40:33;95271.00;;;5.42;76.65
28911;BME280;16028;42.642;23.310;2022-12-18T11:43:08;95270.69;;;5.32;78.24
28911;BME280;16028;42.642;23.310;2022-12-18T11:45:41;95283.31;;;5.37;76.03
28911;BME280;16028;42.642;23.310;2022-12-18T11:48:15;95277.59;;;5.31;73.71
28911;BME280;16028;42.642;23.310;2022-12-18T11:50:47;95266.09;;;5.21;73.39
28911;BME280;16028;42.642;23.310;2022-12-18T11:53:16;95280.00;;;5.19;72.61
28911;BME280;16028;42.642;23.310;2022-12-18T11:55:49;95273.78;;;5.07;73.85
28911;BME280;16028;42.642;23.310;2022-12-18T11:58:32;95273.28;;;5.01;74.23
28911;BME280;16028;42.642;23.310;2022-12-18T12:01:07;95260.06;;;4.91;75.02
28911;BME280;16028;42.642;23.310;2022-12-18T12:06:45;95272.34;;;5.02;75.84
28911;BME280;16028;42.642;23.310;2022-12-18T12:09:18;95264.22;;;4.94;76.99
28911;BME280;16028;42.642;23.310;2022-12-18T12:11:55;95275.53;;;5.07;77.26
28911;BME280;16028;42.642;23.310;2022-12-18T12:14:36;95260.28;;;5.02;78.69
28911;BME280;16028;42.642;23.310;2022-12-18T12:17:13;95266.44;;;5.15;76.31
28911;BME280;16028;42.642;23.310;2022-12-18T12:19:49;95257.81;;;5.01;76.23
28911;BME280;16028;42.642;23.310;2022-12-18T12:22:25;95262.88;;;5.02;77.15
28911;BME280;16028;42.642;23.310;2022-12-18T12:25:07;95263.38;;;5.09;77.36
28911;BME280;16028;42.642;23.310;2022-12-18T12:27:45;95258.31;;;5.07;77.08
28911;BME280;16028;42.642;23.310;2022-12-18T12:30:20;95262.88;;;5.02;78.36
28911;BME280;16028;42.642;23.310;2022-12-18T12:32:55;95270.88;;;5.13;77.62
28911;BME280;16028;42.642;23.310;2022-12-18T12:35:42;95271.53;;;5.17;76.79
28911;BME280;16028;42.642;23.310;2022-12-18T12:38:13;95277.59;;;5.31;76.16
28911;BME280;16028;42.642;23.310;2022-12-18T12:40:45;95276.69;;;5.17;76.36
28911;BME280;16028;42.642;23.310;2022-12-18T12:43:22;95283.00;;;5.27;76.00
28911;BME280;16028;42.642;23.310;2022-12-18T12:45:54;95274.41;;;5.26;75.65
28911;BME280;16028;42.642;23.310;2022-12-18T12:48:31;95276.59;;;5.18;76.84
28911;BME280;16028;42.642;23.310;2022-12-18T12:51:02;95274.41;;;5.26;77.51
28911;BME280;16028;42.642;23.310;2022-12-18T12:53:34;95285.88;;;5.37;76.42
28911;BME280;16028;42.642;23.310;2022-12-18T12:56:04;95282.00;;;5.29;76.68
28911;BME280;16028;42.642;23.310;2022-12-18T12:58:36;95286.34;;;5.29;77.25
28911;BME280;16028;42.642;23.310;2022-12-18T13:01:16;95285.66;;;5.25;76.99
28911;BME280;16028;42.642;23.310;2022-12-18T13:03:51;95287.31;;;5.26;77.61
28911;BME280;16028;42.642;23.310;2022-12-18T13:06:30;95288.59;;;5.19;78.98
28911;BME280;16028;42.642;23.310;2022-12-18T13:09:00;95288.25;;;5.25;78.62
28911;BME280;16028;42.642;23.310;2022-12-18T13:11:36;95295.53;;;5.33;79.04
28911;BME280;16028;42.642;23.310;2022-12-18T13:14:29;95296.22;;;5.37;78.18